• Join FlightAware (Why Join?)
  • Login
  • US Flag 
05:07AM EDT


 

Airport Tracker/Info


-or-


 

Live Flight TrackerFlight Track Log ✈ SWA1044 ✈ 11-May-2013 ✈ KTPA - KBDL

Flight Track Log - Related Links

Times and Time Zones

All times are in EDT time to prevent confusion due to time zone crossing. See the SWA1044 flight status page for this flight to view local times or setup timezone preferences in your user account.

Time Position Orientation Groundspeed Altitude Reporting Facility
EDT Latitude Longitude Course Direction KTS MPH feet Rate Location/Type
02:52PM 27.9667 -82.5500 196° South 166 191 1,000  Level Tampa TRACON
02:53PM 27.9167 -82.5667 196° South 204 235 2,200 2,160 Climbing Tampa TRACON
02:54PM 27.9167 -82.6333 270° West 218 251 4,900 2,880 Climbing Tampa TRACON
02:55PM 27.9833 -82.6500 348° North 287 330 8,000 2,940 Climbing Tampa TRACON
02:56PM 28.0667 -82.6333 10° North 314 361 10,800 1,740 Climbing Tampa TRACON
02:57PM 28.1892 -82.6122 North 340 391 11,900 480 Climbing Jacksonville Center
02:58PM 28.2914 -82.5956 North 358 412 12,000 1,560 Climbing Jacksonville Center
02:59PM 28.3936 -82.5833 North 363 418 15,100 2,820 Climbing Jacksonville Center
03:00PM 28.4958 -82.5856 359° North 363 418 17,700 2,700 Climbing Jacksonville Center
03:01PM 28.6067 -82.5875 359° North 368 423 20,500 2,520 Climbing Jacksonville Center
03:02PM 28.7192 -82.5967 356° North 392 451 22,800 2,160 Climbing Jacksonville Center
03:03PM 28.8361 -82.6128 353° North 404 465 24,900 2,040 Climbing Jacksonville Center
03:04PM 28.9572 -82.6292 353° North 423 487 26,900 540 Climbing Jacksonville Center
03:05PM 29.0783 -82.6456 353° North 433 498 26,000 -480 Descending Jacksonville Center
03:06PM 29.1994 -82.6619 353° North 433 498 26,000  Level Jacksonville Center
03:07PM 29.3228 -82.6806 353° North 433 498 26,000  Level Jacksonville Center
03:08PM 29.4439 -82.6922 355° North 433 498 26,000 120 Level Jacksonville Center
03:09PM 29.5567 -82.6944 359° North 442 509 26,300 480 Climbing Jacksonville Center
03:10PM 29.6797 -82.6917 North 437 503 27,000 300 Climbing Jacksonville Center
03:11PM 29.8050 -82.6914 360° North 437 503 27,000  Level Jacksonville Center
03:12PM 29.9281 -82.6911 360° North 437 503 27,000  Level Jacksonville Center
03:13PM 30.0492 -82.6886 North 437 503 27,000  Level Jacksonville Center
03:14PM 30.1744 -82.6858 North 437 503 27,000  Level Jacksonville Center
03:15PM 30.2997 -82.6881 359° North 437 503 27,000  Level Jacksonville Center
03:16PM 30.4208 -82.6853 North 437 503 27,000  Level Jacksonville Center
03:17PM 30.5461 -82.6658 North 443 510 27,000 -60 Level Jacksonville Center
03:18PM 30.6711 -82.5981 25° Northeast 443 510 26,900  Descending Jacksonville Center
03:19PM 30.7839 -82.5178 31° Northeast 449 517 27,000  Climbing Jacksonville Center
03:20PM 30.9069 -82.4833 14° North 449 517 27,000  Level Jacksonville Center
03:21PM 31.0278 -82.4367 18° North 449 517 27,000  Level Jacksonville Center
03:22PM 31.1486 -82.3781 23° Northeast 460 529 27,000  Level Jacksonville Center
03:23PM 31.2675 -82.3189 23° Northeast 465 535 27,000  Level Jacksonville Center
03:24PM 31.3903 -82.2575 23° Northeast 465 535 27,000  Level Jacksonville Center
03:25PM 31.5092 -82.2006 22° Northeast 470 541 27,000  Level Jacksonville Center
03:26PM 31.6278 -82.1386 24° Northeast 470 541 27,000  Level Jacksonville Center
03:27PM 31.7506 -82.0789 22° Northeast 463 533 27,000  Level Jacksonville Center
03:28PM 31.8586 -82.0242 23° Northeast 463 533 27,000  Level Jacksonville Center
03:29PM 31.9897 -81.9519 25° Northeast 463 533 27,000  Level Jacksonville Center
03:30PM 32.0892 -81.8578 39° Northeast 465 535 27,000  Level Jacksonville Center
03:31PM 32.1803 -81.7683 40° Northeast 465 535 27,000  Level Jacksonville Center
03:32PM 32.2919 -81.6564 40° Northeast 470 541 27,000  Level Jacksonville Center
03:33PM 32.3831 -81.5642 41° Northeast 470 541 27,000  Level Jacksonville Center
03:34PM 32.4944 -81.4542 40° Northeast 470 541 27,000  Level Jacksonville Center
03:35PM 32.5956 -81.3539 40° Northeast 470 541 27,000  Level Jacksonville Center
03:36PM 32.6761 -81.2711 41° Northeast 475 547 27,000  Level Jacksonville Center
03:37PM 32.7850 -81.1581 41° Northeast 475 547 27,000  Level Jacksonville Center
03:38PM 32.8858 -81.0544 41° Northeast 475 547 27,000  Level Jacksonville Center
03:39PM 32.9867 -80.9536 40° Northeast 475 547 27,000  Level Jacksonville Center
03:40PM 33.0872 -80.8497 41° Northeast 475 547 27,000  Level Jacksonville Center
03:41PM 33.1858 -80.7506 40° Northeast 470 541 27,000  Level Jacksonville Center
03:42PM 33.2864 -80.6464 41° Northeast 470 541 27,000  Level Jacksonville Center
03:43PM 33.3867 -80.5419 41° Northeast 470 541 27,000  Level Jacksonville Center
03:44PM 33.4828 -80.4347 43° Northeast 475 547 27,000  Level Jacksonville Center
03:45PM 33.5594 -80.3056 55° Northeast 470 541 27,000  Level Jacksonville Center
03:46PM 33.6319 -80.1761 56° Northeast 470 541 27,000  Level Jacksonville Center
03:47PM 33.7083 -80.0439 55° Northeast 470 541 27,000  Level Jacksonville Center
03:48PM 33.7803 -79.9117 57° Northeast 470 541 27,000  Level Jacksonville Center
03:49PM 33.8544 -79.7817 55° Northeast 470 541 27,000  Level Jacksonville Center
03:50PM 33.9261 -79.6514 56° Northeast 470 541 27,000  Level Jacksonville Center
03:51PM 34.0042 -79.5158 55° Northeast 465 535 27,000  Level Jacksonville Center
03:53PM 34.1583 -79.2283 57° Northeast 463 533 27,000  Level Washington Center
03:54PM 34.2331 -79.0961 56° Northeast 463 533 27,000 360 Level Washington Center
03:55PM 34.3283 -78.9794 45° Northeast 473 544 27,800 1,260 Climbing Washington Center
03:56PM 34.4497 -78.8886 32° Northeast 480 552 29,500 1,740 Climbing Washington Center
03:57PM 34.5672 -78.7950 33° Northeast 495 570 31,400 1,980 Climbing Washington Center
03:58PM 34.6992 -78.6967 31° Northeast 506 582 33,600 1,860 Climbing Washington Center
03:59PM 34.8033 -78.6172 32° Northeast 501 577 35,100 1,440 Climbing Washington Center
04:00PM 34.9161 -78.5328 32° Northeast 491 565 36,500 900 Climbing Washington Center
04:01PM 35.0436 -78.4308 33° Northeast 491 565 37,000 1,080 Climbing Washington Center
04:02PM 35.1564 -78.3433 32° Northeast 486 559 38,800 960 Climbing Washington Center
04:03PM 35.2711 -78.2531 33° Northeast 486 559 39,000 60 Climbing Washington Center
04:04PM 35.3856 -78.1653 32° Northeast 486 559 39,000  Level Washington Center
04:05PM 35.5003 -78.0744 33° Northeast 486 559 39,000  Level Washington Center
04:06PM 35.6167 -77.9886 31° Northeast 491 565 39,000  Level Washington Center
04:07PM 35.7311 -77.8975 33° Northeast 486 559 39,000  Level Washington Center
04:08PM 35.8456 -77.8086 32° Northeast 486 559 39,000  Level Washington Center
04:09PM 35.9619 -77.7167 33° Northeast 491 565 39,000  Level Washington Center
04:10PM 36.0742 -77.6169 36° Northeast 491 565 39,000  Level Washington Center
04:11PM 36.1867 -77.5144 36° Northeast 496 571 39,000  Level Washington Center
04:12PM 36.2778 -77.4239 39° Northeast 491 565 39,000  Level Washington Center
04:13PM 36.3878 -77.3206 37° Northeast 486 559 39,000  Level Washington Center
04:14PM 36.4997 -77.2172 37° Northeast 492 566 39,000  Level Washington Center
04:15PM 36.6075 -77.1133 38° Northeast 492 566 39,000  Level Washington Center
04:16PM 36.7278 -76.9964 38° Northeast 500 575 39,000  Level Washington Center
04:17PM 36.8436 -76.8947 35° Northeast 495 570 39,000  Level Washington Center
04:18PM 36.9553 -76.7953 35° Northeast 495 570 39,000  Level Washington Center
04:19PM 37.0669 -76.6931 36° Northeast 495 570 39,000  Level Washington Center
04:20PM 37.1783 -76.5903 36° Northeast 495 570 39,000  Level Washington Center
04:21PM 37.2917 -76.4847 37° Northeast 495 570 39,000  Level Washington Center
04:22PM 37.4072 -76.3814 35° Northeast 500 575 39,000  Level Washington Center
04:23PM 37.5122 -76.2883 35° Northeast 500 575 39,000  Level Washington Center
04:24PM 37.6233 -76.1844 37° Northeast 500 575 39,000  Level Washington Center
04:25PM 37.7406 -76.0828 34° Northeast 500 575 39,000  Level Washington Center
04:26PM 37.8514 -75.9706 39° Northeast 505 581 39,000  Level Washington Center
04:27PM 37.9664 -75.8658 36° Northeast 512 589 39,000  Level Washington Center
04:28PM 38.0833 -75.7581 36° Northeast 512 589 39,000  Level Washington Center
04:29PM 38.1961 -75.6500 37° Northeast 512 589 39,000  Level Washington Center
04:30PM 38.3086 -75.5442 36° Northeast 507 583 39,000  Level Washington Center
04:31PM 38.4358 -75.4697 25° Northeast 507 583 39,000  Level Washington Center
04:32PM 38.5608 -75.4139 19° North 483 556 39,000  Level Washington Center
04:33PM 38.6731 -75.2992 39° Northeast 496 571 39,000  Level Washington Center
04:34PM 38.7853 -75.1817 39° Northeast 508 585 39,000  Level Washington Center
04:35PM 38.8975 -75.0636 39° Northeast 513 590 39,000  Level Washington Center
04:36PM 39.0094 -74.9425 40° Northeast 519 597 39,000  Level Washington Center
04:37PM 39.1192 -74.8239 40° Northeast 519 597 39,000  Level Washington Center
04:38PM 39.2331 -74.7019 40° Northeast 519 597 39,000 -60 Level Washington Center
04:39PM 39.3425 -74.5825 40° Northeast 519 597 38,900  Descending Washington Center
04:40PM 39.4622 -74.4492 41° Northeast 519 597 39,000  Climbing Washington Center
04:41PM 39.5672 -74.3344 40° Northeast 519 597 39,000  Level Washington Center
04:43PM 39.7558 -74.1267 40° Northeast 497 572 39,000  Level Boston Center
04:44PM 39.8617 -74.0158 39° Northeast 492 566 39,000  Level Boston Center
04:45PM 39.9714 -73.9019 38° Northeast 492 566 39,000 -60 Level Boston Center
04:46PM 40.0750 -73.7822 41° Northeast 498 573 38,900  Descending Boston Center
04:47PM 40.1933 -73.6569 39° Northeast 498 573 39,000 -780 Climbing Boston Center
04:48PM 40.2900 -73.5528 39° Northeast 498 573 37,400 -2,400 Descending Boston Center
04:49PM 40.4097 -73.4567 31° Northeast 493 567 34,200 -2,880 Descending Boston Center
04:50PM 40.5211 -73.3600 33° Northeast 487 560 31,700 -2,460 Descending Boston Center
04:51PM 40.6300 -73.2686 32° Northeast 476 548 29,300 -2,580 Descending Boston Center
04:52PM 40.7453 -73.1797 30° Northeast 449 517 26,600 -3,000 Descending Boston Center
04:53PM 40.8458 -73.0958 32° Northeast 435 501 23,300 -3,120 Descending Boston Center
04:54PM 40.9486 -73.0089 33° Northeast 435 501 20,400 -2,400 Descending Boston Center
04:55PM 41.0281 -72.9408 33° Northeast 430 495 18,500 -2,280 Descending Boston Center
04:56PM 41.1325 -72.8506 33° Northeast 425 489 15,900 -2,820 Descending Boston Center
04:57PM 41.1953 -72.7986 32° Northeast 397 457 14,100 -2,400 Descending Boston Center
04:57PM 41.2225 -72.7711 37° Northeast 406 467 13,500 -2,400 Descending Boston Center
04:58PM 41.2850 -72.7192 32° Northeast 385 443 11,700 -2,400 Descending Boston Center
04:58PM 41.3164 -72.7136 North 371 427 11,100 -1,020 Descending Boston Center
04:59PM 41.3725 -72.7472 336° Northwest 309 356 10,700 -720 Descending Boston Center
04:59PM 41.4039 -72.7583 345° North 299 344 10,400 -1,020 Descending Boston Center
05:00PM 41.4600 -72.7503 North 321 369 9,700 -1,200 Descending Boston Center
05:00PM 41.4850 -72.7367 22° Northeast 304 350 9,200 -1,440 Descending Boston Center
05:01PM 41.5519 -72.7036 20° North 326 375 8,100 -1,440 Descending Boston Center
05:02PM 41.6353 -72.6650 19° North 323 372 6,800 -1,440 Descending Boston Center
05:03PM 41.7103 -72.6264 21° North 301 346 5,300 -900 Descending Boston Center
05:04PM 41.7958 -72.5906 17° North 298 343 5,000 -180 Descending Boston Center
05:05PM 41.8753 -72.5544 19° North 298 343 5,000 -420 Level Boston Center
05:06PM 41.9439 -72.4931 34° Northeast 296 341 4,200 -660 Descending Boston Center
05:07PM 42.0064 -72.4344 35° Northeast 267 307 3,700 -900 Descending Boston Center
05:08PM 42.0586 -72.4708 333° Northwest 223 257 2,500 -600 Descending Boston Center
05:09PM 42.0564 -72.5294 267° West 164 189 2,500  Level Boston Center
05:10PM 42.0253 -72.5742 227° Southwest 161 185 2,500 -600 Level Boston Center
05:11PM 41.9939 -72.6161 225° Southwest 159 183 1,400 -960 Descending Boston Center
05:12PM 41.9647 -72.6522 223° Southwest 142 163 600 -840 Descending Boston Center